Aviation Digital Data Service (ADDS)

Output produced by METARs form (2029 UTC 17 November 2019)
found at http://www.aviationweather.gov/metar/data/
 
METAR text: RJSH 170038Z 29026G50KT 260V320 9999 SCT015 BKN040 05/M06 Q1017 RMK 3CU015 7CU040 A3005
Conditions at: RJSH (HACHINOHE (JMSDF, JP) observed 0038 UTC 17 November 2019
Temperature: 5.0°C (41°F)
Dewpoint: -6.0°C (21°F) [RH = 45%]
Pressure (altimeter): 30.03 inches Hg (1017.0 mb)
Winds: from the WNW (290 degrees) at 30 MPH (26 knots; 13.4 m/s)
gusting to 57 MPH (50 knots; 25.7 m/s)
Visibility: 6 or more miles (10+ km)
Ceiling: 4000 feet AGL
Clouds: scattered clouds at 1500 feet AGL
broken clouds at 4000 feet AGL
Weather: no significant weather observed at this time

METAR text: RJSH 162136Z 28017G35KT 210V310 9999 FEW015 BKN040 05/M05 Q1015 RMK 2CU015 6CU040 A2998
Conditions at: RJSH (HACHINOHE (JMSDF, JP) observed 2136 UTC 16 November 2019
Temperature: 5.0°C (41°F)
Dewpoint: -5.0°C (23°F) [RH = 48%]
Pressure (altimeter): 29.97 inches Hg (1015.0 mb)
Winds: from the W (280 degrees) at 20 MPH (17 knots; 8.7 m/s)
gusting to 40 MPH (35 knots; 18.0 m/s)
Visibility: 6 or more miles (10+ km)
Ceiling: 4000 feet AGL
Clouds: few clouds at 1500 feet AGL
broken clouds at 4000 feet AGL
Weather: no significant weather observed at this time

METAR text: RJSH 161804Z 27017G28KT 9999 FEW015 BKN040 05/M03 Q1013 RMK 1CU015 5CU040 A2994
Conditions at: RJSH (HACHINOHE (JMSDF, JP) observed 1804 UTC 16 November 2019
Temperature: 5.0°C (41°F)
Dewpoint: -3.0°C (27°F) [RH = 56%]
Pressure (altimeter): 29.91 inches Hg (1013.0 mb)
Winds: from the W (270 degrees) at 20 MPH (17 knots; 8.7 m/s)
gusting to 32 MPH (28 knots; 14.4 m/s)
Visibility: 6 or more miles (10+ km)
Ceiling: 4000 feet AGL
Clouds: few clouds at 1500 feet AGL
broken clouds at 4000 feet AGL
Weather: no significant weather observed at this time